createdAt,value
2018-05-03T00:00:47.797Z,12.10
2018-05-03T00:03:15.247Z,12.10
2018-05-03T00:05:43.066Z,12.10
2018-05-03T00:08:10.495Z,12.10
2018-05-03T00:10:38.684Z,12.00
2018-05-03T00:13:06.869Z,12.00
2018-05-03T00:15:34.719Z,11.90
2018-05-03T00:18:02.166Z,12.00
2018-05-03T00:20:29.620Z,11.90
2018-05-03T00:22:57.064Z,11.80
2018-05-03T00:25:25.240Z,11.80
2018-05-03T00:27:52.696Z,11.80
2018-05-03T00:30:20.880Z,11.80
2018-05-03T00:32:48.331Z,11.80
2018-05-03T00:35:15.786Z,11.70
2018-05-03T00:37:43.197Z,11.70
2018-05-03T00:40:10.673Z,11.90
2018-05-03T00:42:38.108Z,11.80
2018-05-03T00:45:05.570Z,11.70
2018-05-03T00:47:32.993Z,11.70
2018-05-03T00:50:01.191Z,11.70
2018-05-03T00:52:28.612Z,11.70
2018-05-03T00:54:56.051Z,11.80
2018-05-03T00:57:23.484Z,11.80
2018-05-03T00:59:51.692Z,11.70
2018-05-03T01:02:19.147Z,11.70
2018-05-03T01:04:47.363Z,11.60
2018-05-03T01:07:14.790Z,11.70
2018-05-03T01:09:42.983Z,11.60
2018-05-03T01:12:10.460Z,11.60
2018-05-03T01:14:38.656Z,11.50
2018-05-03T01:17:06.102Z,11.60
2018-05-03T01:19:33.540Z,11.60
2018-05-03T01:22:01.075Z,11.50
2018-05-03T01:24:28.556Z,11.60
2018-05-03T01:26:56.009Z,11.60
2018-05-03T01:29:23.459Z,11.50
2018-05-03T01:31:50.868Z,11.50
2018-05-03T01:34:18.303Z,11.50
2018-05-03T01:36:46.508Z,11.50
2018-05-03T01:39:13.930Z,11.50
2018-05-03T01:41:41.353Z,11.50
2018-05-03T01:44:08.789Z,11.50
2018-05-03T01:46:36.214Z,11.40
2018-05-03T01:49:03.667Z,11.50
2018-05-03T01:51:31.084Z,11.50
2018-05-03T01:53:58.508Z,11.50
2018-05-03T01:56:25.932Z,11.40
2018-05-03T01:58:53.371Z,11.40
2018-05-03T02:01:20.789Z,11.50
2018-05-03T02:03:49.007Z,11.50
2018-05-03T02:06:16.449Z,11.50
2018-05-03T02:08:44.646Z,11.50
2018-05-03T02:11:12.078Z,11.40
2018-05-03T02:13:39.497Z,11.50
2018-05-03T02:16:07.364Z,11.50
2018-05-03T02:18:35.549Z,11.50
2018-05-03T02:21:03.000Z,11.50
2018-05-03T02:23:31.258Z,11.40
2018-05-03T02:25:58.677Z,11.40
2018-05-03T02:28:26.125Z,11.50
2018-05-03T02:30:53.553Z,11.50
2018-05-03T02:33:21.002Z,11.60
2018-05-03T02:35:48.423Z,11.60
2018-05-03T02:38:15.845Z,11.60
2018-05-03T02:40:43.293Z,11.60
2018-05-03T02:43:10.749Z,11.60
2018-05-03T02:45:38.161Z,11.60
2018-05-03T02:48:05.620Z,11.60
2018-05-03T02:50:33.029Z,11.60
2018-05-03T02:53:00.459Z,11.60
2018-05-03T02:55:27.914Z,11.50
2018-05-03T02:58:13.745Z,11.50
2018-05-03T03:00:58.681Z,11.50
2018-05-03T03:03:43.637Z,11.50
2018-05-03T03:06:28.722Z,11.50
2018-05-03T03:09:26.660Z,11.50
2018-05-03T03:15:41.898Z,11.50
2018-05-03T03:18:26.769Z,11.50
2018-05-03T03:21:11.672Z,11.50
2018-05-03T03:23:56.736Z,11.50
2018-05-03T03:26:52.504Z,11.50
2018-05-03T03:29:37.489Z,11.50
2018-05-03T03:32:17.366Z,11.50
2018-05-03T03:34:44.811Z,11.50
2018-05-03T03:37:23.983Z,11.50
2018-05-03T03:40:08.883Z,11.50
2018-05-03T03:54:53.242Z,11.50
2018-05-03T03:57:20.673Z,11.50
2018-05-03T03:59:48.112Z,11.50
2018-05-03T04:02:15.600Z,11.50
2018-05-03T04:04:43.774Z,11.50
2018-05-03T04:07:11.199Z,11.50
2018-05-03T04:09:38.620Z,11.50
2018-05-03T04:12:06.818Z,11.50
2018-05-03T04:14:34.241Z,11.50
2018-05-03T04:17:01.671Z,11.60
2018-05-03T04:19:41.806Z,11.60
2018-05-03T04:22:21.239Z,11.50
2018-05-03T04:25:00.576Z,11.50
2018-05-03T04:27:28.015Z,11.50
2018-05-03T04:29:55.490Z,11.60
2018-05-03T04:32:22.868Z,11.60
2018-05-03T04:34:50.315Z,11.60
2018-05-03T04:37:17.757Z,11.60
2018-05-03T04:39:45.225Z,11.60
2018-05-03T04:42:12.684Z,11.60
2018-05-03T04:44:40.121Z,11.60
2018-05-03T04:47:07.572Z,11.60
2018-05-03T04:49:34.975Z,11.70
2018-05-03T04:52:02.412Z,11.70
2018-05-03T04:54:30.608Z,11.80
2018-05-03T04:56:58.045Z,11.80
2018-05-03T04:59:25.471Z,11.80
2018-05-03T05:01:52.885Z,11.80
2018-05-03T05:04:21.080Z,11.90
2018-05-03T05:06:48.538Z,11.90
2018-05-03T05:09:15.972Z,12.00
2018-05-03T05:11:43.423Z,12.00
2018-05-03T05:14:11.600Z,12.00
2018-05-03T05:16:39.038Z,12.00
2018-05-03T05:19:07.240Z,12.10
2018-05-03T05:21:34.669Z,12.10
2018-05-03T05:24:02.126Z,12.10
2018-05-03T05:26:29.578Z,12.20
2018-05-03T05:28:57.025Z,12.20
2018-05-03T05:31:24.932Z,12.20
2018-05-03T05:33:52.372Z,12.20
2018-05-03T05:36:19.850Z,12.20
2018-05-03T05:38:47.421Z,12.20
2018-05-03T05:41:14.764Z,12.30
2018-05-03T05:43:43.007Z,12.30
2018-05-03T05:46:10.448Z,12.30
2018-05-03T05:48:37.881Z,12.30
2018-05-03T05:51:05.341Z,12.50
2018-05-03T05:53:32.764Z,12.50
2018-05-03T05:56:00.220Z,12.60
2018-05-03T05:58:27.677Z,12.50
2018-05-03T06:00:55.120Z,12.60
2018-05-03T06:03:22.581Z,12.60
2018-05-03T06:05:50.876Z,12.60
2018-05-03T06:08:18.311Z,12.50
2018-05-03T06:10:45.749Z,12.50
2018-05-03T06:13:13.161Z,12.50
2018-05-03T06:15:40.582Z,12.50
2018-05-03T06:18:08.266Z,12.40
2018-05-03T06:20:35.711Z,12.40
2018-05-03T06:23:03.128Z,12.30
2018-05-03T06:25:30.559Z,12.30
2018-05-03T06:27:58.014Z,12.20
2018-05-03T06:30:25.440Z,12.20
2018-05-03T06:32:52.904Z,12.20
2018-05-03T06:35:20.367Z,12.20
2018-05-03T06:37:47.828Z,12.20
2018-05-03T06:40:15.251Z,12.20
2018-05-03T06:42:42.677Z,12.20
2018-05-03T06:45:10.116Z,12.40
2018-05-03T06:47:37.542Z,12.50
2018-05-03T06:50:05.011Z,12.60
2018-05-03T06:52:32.420Z,12.60
2018-05-03T06:55:00.614Z,12.60
2018-05-03T06:57:28.069Z,12.60
2018-05-03T06:59:55.524Z,12.70
2018-05-03T07:02:22.983Z,12.80
2018-05-03T07:04:50.437Z,12.80
2018-05-03T07:07:17.878Z,12.80
2018-05-03T07:09:45.296Z,12.90
2018-05-03T07:12:12.717Z,12.90
2018-05-03T07:14:40.177Z,12.90
2018-05-03T07:17:07.704Z,13.00
2018-05-03T07:19:35.117Z,13.10
2018-05-03T07:22:02.616Z,13.10
2018-05-03T07:24:30.022Z,13.20
2018-05-03T07:26:57.453Z,13.10
2018-05-03T07:29:24.959Z,13.20
2018-05-03T07:31:52.372Z,13.20
2018-05-03T07:34:19.821Z,13.30
2018-05-03T07:36:48.143Z,13.40
2018-05-03T07:39:15.560Z,13.40
2018-05-03T07:41:43.100Z,13.50
2018-05-03T07:44:10.475Z,13.60
2018-05-03T07:46:38.144Z,13.70
2018-05-03T07:49:05.598Z,13.80
2018-05-03T07:51:33.033Z,13.80
2018-05-03T07:54:00.459Z,13.90
2018-05-03T07:56:27.877Z,13.80
2018-05-03T07:58:55.322Z,13.80
2018-05-03T08:01:23.627Z,13.70
2018-05-03T08:03:51.070Z,13.80
2018-05-03T08:06:18.872Z,14.00
2018-05-03T08:08:46.324Z,14.00
2018-05-03T08:11:13.733Z,14.00
2018-05-03T08:13:41.157Z,14.00
2018-05-03T08:16:08.600Z,14.10
2018-05-03T08:18:36.830Z,14.10
2018-05-03T08:21:04.280Z,14.20
2018-05-03T08:23:31.704Z,14.10
2018-05-03T08:25:59.140Z,14.30
2018-05-03T08:28:26.684Z,14.30
2018-05-03T08:30:54.824Z,14.40
2018-05-03T08:33:22.288Z,14.40
2018-05-03T08:35:50.510Z,14.40
2018-05-03T08:38:17.941Z,14.30
2018-05-03T08:40:46.133Z,14.40
2018-05-03T08:43:13.560Z,14.30
2018-05-03T08:45:41.018Z,14.40
2018-05-03T08:48:08.455Z,14.40
2018-05-03T08:50:35.882Z,14.60
2018-05-03T08:53:03.353Z,14.70
2018-05-03T08:55:30.802Z,14.60
2018-05-03T08:57:58.301Z,14.60
2018-05-03T09:00:26.493Z,14.50
2018-05-03T09:02:53.924Z,14.50
2018-05-03T09:05:21.376Z,14.40
2018-05-03T09:07:48.887Z,14.60
2018-05-03T09:10:17.070Z,14.70
2018-05-03T09:12:44.507Z,14.80
2018-05-03T09:15:11.925Z,14.60
2018-05-03T09:17:39.346Z,14.60
2018-05-03T09:20:06.796Z,14.80
2018-05-03T09:22:35.046Z,14.90
2018-05-03T09:25:02.477Z,14.90
2018-05-03T09:27:29.902Z,15.10
2018-05-03T09:29:58.102Z,15.20
2018-05-03T09:32:25.524Z,15.30
2018-05-03T09:34:52.952Z,15.30
2018-05-03T09:37:20.398Z,15.40
2018-05-03T09:39:47.832Z,15.50
2018-05-03T09:42:15.474Z,15.50
2018-05-03T09:44:43.036Z,15.50
2018-05-03T09:47:10.405Z,15.50
2018-05-03T09:49:38.056Z,15.60
2018-05-03T09:52:05.506Z,15.70
2018-05-03T09:54:32.967Z,15.70
2018-05-03T09:57:00.389Z,15.60
2018-05-03T09:59:27.859Z,15.60
2018-05-03T10:01:55.281Z,15.80
2018-05-03T10:04:22.705Z,16.00
2018-05-03T10:06:50.138Z,16.00
2018-05-03T10:09:17.611Z,15.90
2018-05-03T10:11:45.813Z,16.20
2018-05-03T10:14:13.378Z,16.20
2018-05-03T10:16:41.087Z,16.30
2018-05-03T10:19:08.743Z,16.10
2018-05-03T10:21:36.192Z,15.90
2018-05-03T10:24:04.384Z,15.90
2018-05-03T10:26:32.593Z,15.70
2018-05-03T10:29:00.596Z,15.70
2018-05-03T10:31:27.965Z,15.70
2018-05-03T10:33:55.404Z,15.60
2018-05-03T10:36:22.855Z,15.70
2018-05-03T10:38:50.286Z,15.80
2018-05-03T10:41:17.709Z,15.90
2018-05-03T10:43:45.362Z,16.00
2018-05-03T10:46:13.586Z,16.10
2018-05-03T10:48:41.073Z,16.10
2018-05-03T10:51:09.303Z,16.20
2018-05-03T10:53:36.714Z,15.50
2018-05-03T10:56:04.144Z,16.10
2018-05-03T10:58:31.561Z,16.20
2018-05-03T11:00:59.001Z,16.10
2018-05-03T11:03:26.472Z,16.20
2018-05-03T11:05:54.638Z,16.50
2018-05-03T11:08:22.128Z,16.50
2018-05-03T11:10:49.599Z,16.60
2018-05-03T11:13:17.789Z,16.80
2018-05-03T11:15:45.214Z,16.80
2018-05-03T11:18:12.679Z,16.70
2018-05-03T11:20:40.106Z,16.70
2018-05-03T11:23:07.529Z,16.90
2018-05-03T11:25:35.002Z,16.90
2018-05-03T11:28:02.444Z,16.90
2018-05-03T11:30:31.001Z,16.90
2018-05-03T11:32:59.178Z,17.20
2018-05-03T11:35:26.628Z,17.20
2018-05-03T11:37:54.058Z,17.00
2018-05-03T11:40:21.551Z,17.00
2018-05-03T11:42:48.971Z,17.20
2018-05-03T11:45:16.401Z,17.20
2018-05-03T11:47:43.820Z,16.90
2018-05-03T11:50:11.259Z,17.10
2018-05-03T11:52:38.708Z,17.50
2018-05-03T11:55:06.124Z,17.40
2018-05-03T11:57:33.668Z,17.50
2018-05-03T12:00:01.858Z,17.70
2018-05-03T12:02:29.306Z,17.60
2018-05-03T12:04:56.724Z,17.20
2018-05-03T12:07:24.173Z,17.10
2018-05-03T12:09:52.356Z,17.30
2018-05-03T12:12:20.569Z,17.60
2018-05-03T12:14:48.037Z,17.60
2018-05-03T12:17:15.469Z,17.70
2018-05-03T12:19:42.903Z,17.70
2018-05-03T12:22:10.326Z,17.50
2018-05-03T12:24:38.517Z,17.60
2018-05-03T12:27:05.985Z,17.60
2018-05-03T12:29:34.162Z,17.60
2018-05-03T12:32:02.361Z,17.60
2018-05-03T12:34:30.532Z,17.40
2018-05-03T12:36:58.725Z,17.40
2018-05-03T12:39:26.136Z,17.40
2018-05-03T12:41:53.569Z,17.50
2018-05-03T12:44:21.753Z,17.60
2018-05-03T12:46:49.942Z,17.70
2018-05-03T12:49:18.128Z,18.00
2018-05-03T12:51:46.396Z,18.00
2018-05-03T12:54:14.495Z,18.10
2018-05-03T12:56:42.690Z,18.10
2018-05-03T12:59:10.871Z,18.20
2018-05-03T13:01:39.067Z,18.40
2018-05-03T13:04:06.508Z,18.30
2018-05-03T13:06:33.923Z,18.50
2018-05-03T13:09:01.343Z,18.80
2018-05-03T13:11:28.768Z,18.50
2018-05-03T13:13:56.194Z,18.50
2018-05-03T13:16:23.617Z,18.30
2018-05-03T13:18:51.040Z,18.20
2018-05-03T13:21:19.235Z,18.40
2018-05-03T13:23:47.432Z,18.40
2018-05-03T13:26:14.845Z,18.40
2018-05-03T13:28:42.268Z,18.40
2018-05-03T13:31:09.684Z,18.30
2018-05-03T13:33:37.885Z,18.70
2018-05-03T13:36:05.310Z,18.70
2018-05-03T13:38:32.741Z,18.80
2018-05-03T13:41:00.164Z,18.90
2018-05-03T13:43:27.589Z,18.60
2018-05-03T13:45:55.776Z,18.60
2018-05-03T13:48:23.952Z,18.50
2018-05-03T13:50:51.369Z,18.50
2018-05-03T13:53:18.833Z,18.60
2018-05-03T13:55:46.229Z,18.80
2018-05-03T13:58:13.636Z,18.80
2018-05-03T14:00:41.909Z,18.90
2018-05-03T14:03:10.048Z,18.70
2018-05-03T14:05:37.469Z,18.70
2018-05-03T14:08:04.898Z,18.60
2018-05-03T14:10:32.317Z,18.60
2018-05-03T14:13:00.558Z,18.60
2018-05-03T14:15:28.683Z,18.90
2018-05-03T14:17:56.100Z,18.90
2018-05-03T14:20:23.521Z,18.80
2018-05-03T14:22:50.949Z,19.20
2018-05-03T14:25:18.360Z,20.00
2018-05-03T14:27:45.776Z,20.60
2018-05-03T14:30:13.188Z,22.10
2018-05-03T14:32:40.622Z,22.80
2018-05-03T14:35:08.058Z,22.60
2018-05-03T14:37:36.249Z,22.40
2018-05-03T14:40:03.661Z,21.40
2018-05-03T14:42:31.114Z,21.30
2018-05-03T14:44:58.517Z,20.10
2018-05-03T14:47:25.938Z,20.10
2018-05-03T14:49:53.353Z,19.90
2018-05-03T14:52:20.785Z,20.10
2018-05-03T14:54:48.193Z,20.10
2018-05-03T14:57:15.611Z,20.20
2018-05-03T14:59:43.046Z,20.60
2018-05-03T15:02:10.519Z,20.50
2018-05-03T15:04:37.922Z,20.70
2018-05-03T15:07:05.349Z,20.40
2018-05-03T15:09:32.754Z,20.90
2018-05-03T15:12:00.169Z,20.10
2018-05-03T15:14:27.592Z,20.20
2018-05-03T15:16:55.035Z,20.20
2018-05-03T15:19:22.433Z,20.50
2018-05-03T15:21:49.848Z,20.60
2018-05-03T15:24:17.328Z,20.60
2018-05-03T15:26:44.705Z,20.60
2018-05-03T15:29:12.128Z,20.90
2018-05-03T15:31:39.547Z,20.70
2018-05-03T15:34:06.976Z,20.80
2018-05-03T15:36:34.787Z,20.80
2018-05-03T15:39:02.203Z,20.70
2018-05-03T15:41:29.649Z,20.70
2018-05-03T15:43:57.839Z,21.00
2018-05-03T15:46:26.016Z,21.60
2018-05-03T15:48:54.210Z,21.70
2018-05-03T15:51:21.755Z,21.70
2018-05-03T15:53:49.189Z,21.60
2018-05-03T15:56:16.613Z,21.60
2018-05-03T15:58:44.812Z,22.60
2018-05-03T16:01:12.274Z,22.60
2018-05-03T16:03:39.663Z,22.90
2018-05-03T16:06:07.109Z,23.60
2018-05-03T16:08:34.580Z,22.90
2018-05-03T16:11:02.763Z,23.00
2018-05-03T16:13:30.179Z,23.00
2018-05-03T16:15:57.588Z,23.20
2018-05-03T16:18:25.009Z,22.50
2018-05-03T16:20:52.436Z,23.60
2018-05-03T16:23:20.628Z,23.10
2018-05-03T16:25:48.824Z,23.10
2018-05-03T16:28:16.281Z,22.90
2018-05-03T16:30:43.696Z,23.00
2018-05-03T16:33:11.117Z,23.30
2018-05-03T16:35:38.556Z,23.90
2018-05-03T16:38:06.760Z,23.40
2018-05-03T16:40:34.227Z,23.10
2018-05-03T16:43:01.654Z,23.80
2018-05-03T16:45:29.080Z,23.70
2018-05-03T16:47:57.272Z,23.40
2018-05-03T16:50:25.457Z,23.40
2018-05-03T16:52:53.657Z,23.80
2018-05-03T16:55:21.838Z,24.40
2018-05-03T16:57:50.032Z,23.80
2018-05-03T17:00:18.228Z,22.50
2018-05-03T17:02:45.671Z,22.50
2018-05-03T17:05:13.100Z,21.70
2018-05-03T17:07:41.316Z,20.90
2018-05-03T17:10:08.744Z,20.90
2018-05-03T17:12:36.158Z,21.40
2018-05-03T17:15:03.591Z,22.00
2018-05-03T17:17:31.013Z,23.20
2018-05-03T17:19:59.207Z,23.50
2018-05-03T17:22:27.394Z,22.80
2018-05-03T17:24:55.577Z,22.30
2018-05-03T17:27:23.762Z,21.80
2018-05-03T17:29:52.130Z,21.80
2018-05-03T17:32:19.557Z,22.30
2018-05-03T17:34:46.991Z,22.20
2018-05-03T17:37:14.436Z,20.90
2018-05-03T17:39:42.670Z,20.20
2018-05-03T17:42:10.122Z,20.20
2018-05-03T17:44:38.395Z,19.30
2018-05-03T17:47:05.809Z,19.30
2018-05-03T17:49:33.228Z,19.10
2018-05-03T17:52:00.659Z,18.90
2018-05-03T17:54:28.073Z,18.70
2018-05-03T17:56:55.530Z,19.30
2018-05-03T17:59:22.912Z,19.60
2018-05-03T18:01:51.103Z,19.70
2018-05-03T18:04:18.518Z,19.70
2018-05-03T18:06:45.947Z,19.80
2018-05-03T18:09:14.141Z,19.10
2018-05-03T18:11:42.343Z,18.90
2018-05-03T18:14:09.849Z,18.90
2018-05-03T18:16:37.263Z,19.00
2018-05-03T18:19:05.455Z,18.30
2018-05-03T18:21:33.640Z,18.00
2018-05-03T18:24:01.808Z,17.70
2018-05-03T18:26:29.212Z,17.70
2018-05-03T18:28:56.644Z,17.30
2018-05-03T18:31:24.058Z,17.20
2018-05-03T18:33:51.492Z,17.00
2018-05-03T18:36:19.724Z,16.80
2018-05-03T18:38:47.174Z,16.70
2018-05-03T18:41:14.577Z,16.70
2018-05-03T18:43:42.025Z,16.50
2018-05-03T18:46:09.436Z,16.40
2018-05-03T18:48:36.839Z,16.20
2018-05-03T18:51:04.264Z,16.20
2018-05-03T18:53:31.689Z,16.10
2018-05-03T18:55:59.110Z,16.00
2018-05-03T18:58:26.604Z,15.90
2018-05-03T19:00:54.014Z,15.80
2018-05-03T19:03:21.396Z,15.80
2018-05-03T19:05:48.817Z,15.70
2018-05-03T19:08:17.017Z,15.50
2018-05-03T19:10:44.465Z,15.50
2018-05-03T19:13:12.759Z,15.40
2018-05-03T19:15:40.138Z,15.40
2018-05-03T19:18:07.534Z,15.30
2018-05-03T19:20:35.109Z,15.30
2018-05-03T19:23:03.264Z,15.20
2018-05-03T19:25:30.683Z,15.10
2018-05-03T19:27:59.832Z,15.10
2018-05-03T19:30:27.230Z,15.00
2018-05-03T19:32:54.659Z,15.00
2018-05-03T19:35:22.078Z,14.90
2018-05-03T19:37:49.499Z,14.80
2018-05-03T19:40:16.920Z,14.80
2018-05-03T19:42:44.333Z,14.70
2018-05-03T19:45:11.751Z,14.70
2018-05-03T19:47:39.203Z,14.60
2018-05-03T19:50:07.373Z,14.50
2018-05-03T19:52:35.546Z,14.50
2018-05-03T19:55:02.977Z,14.40
2018-05-03T19:57:30.400Z,14.40
2018-05-03T19:59:57.816Z,14.40
2018-05-03T20:02:25.248Z,14.40
2018-05-03T20:04:53.452Z,14.20
2018-05-03T20:07:21.618Z,14.20
2018-05-03T20:09:49.797Z,14.10
2018-05-03T20:12:17.998Z,14.10
2018-05-03T20:14:46.185Z,14.00
2018-05-03T20:17:13.600Z,14.00
2018-05-03T20:19:41.016Z,14.00
2018-05-03T20:22:09.214Z,13.90
2018-05-03T20:24:37.384Z,13.90
2018-05-03T20:27:05.560Z,13.80
2018-05-03T20:29:33.002Z,13.80
2018-05-03T20:32:00.416Z,13.80
2018-05-03T20:34:28.602Z,13.70
2018-05-03T20:36:56.792Z,13.60
2018-05-03T20:39:24.978Z,13.60
2018-05-03T20:41:53.164Z,13.60
2018-05-03T20:44:21.376Z,13.60
2018-05-03T20:46:48.828Z,13.50
2018-05-03T20:49:17.008Z,13.50
2018-05-03T20:51:45.199Z,13.40
2018-05-03T20:54:13.388Z,13.40
2018-05-03T20:56:41.570Z,13.40
2018-05-03T20:59:09.748Z,13.30
2018-05-03T21:01:37.163Z,13.30
2018-05-03T21:04:04.572Z,13.30
2018-05-03T21:06:31.997Z,13.20
2018-05-03T21:08:59.427Z,13.20
2018-05-03T21:11:27.608Z,13.20
2018-05-03T21:13:55.821Z,13.20
2018-05-03T21:16:23.247Z,13.10
2018-05-03T21:18:50.671Z,13.10
2018-05-03T21:21:18.074Z,13.10
2018-05-03T21:23:45.486Z,13.00
2018-05-03T21:26:12.965Z,13.00
2018-05-03T21:28:40.320Z,12.90
2018-05-03T21:31:07.746Z,12.90
2018-05-03T21:33:35.164Z,12.90
2018-05-03T21:36:03.006Z,12.90
2018-05-03T21:38:31.932Z,12.80
2018-05-03T21:41:00.132Z,12.80
2018-05-03T21:43:27.553Z,12.80
2018-05-03T21:45:54.975Z,12.70
2018-05-03T21:48:22.389Z,12.70
2018-05-03T21:50:51.321Z,12.70
2018-05-03T21:53:18.739Z,12.70
2018-05-03T21:55:46.184Z,12.70
2018-05-03T21:58:13.602Z,12.70
2018-05-03T22:00:41.007Z,12.70
2018-05-03T22:03:08.423Z,12.60
2018-05-03T22:05:35.843Z,12.60
2018-05-03T22:08:03.269Z,12.50
2018-05-03T22:10:30.679Z,12.50
2018-05-03T22:12:58.112Z,12.50
2018-05-03T22:15:25.530Z,12.50
2018-05-03T22:17:52.944Z,12.50
2018-05-03T22:20:20.368Z,12.40
2018-05-03T22:22:47.805Z,12.40
2018-05-03T22:25:15.997Z,12.30
2018-05-03T22:27:44.171Z,12.30
2018-05-03T22:30:11.609Z,12.20
2018-05-03T22:32:39.006Z,12.20
2018-05-03T22:35:06.438Z,12.20
2018-05-03T22:37:33.872Z,12.10
2018-05-03T22:40:02.053Z,12.10
2018-05-03T22:42:30.225Z,12.00
2018-05-03T22:44:58.399Z,12.00
2018-05-03T22:47:25.820Z,12.00
2018-05-03T22:49:53.233Z,11.90
2018-05-03T22:52:20.651Z,11.90
2018-05-03T22:54:48.117Z,11.90
2018-05-03T22:57:15.477Z,11.80
2018-05-03T22:59:42.888Z,11.80
2018-05-03T23:02:10.313Z,11.70
2018-05-03T23:04:37.753Z,11.70
2018-05-03T23:07:05.939Z,11.60
2018-05-03T23:09:34.123Z,11.50
2018-05-03T23:12:01.547Z,11.50
2018-05-03T23:14:28.983Z,11.50
2018-05-03T23:16:56.388Z,11.50
2018-05-03T23:19:23.825Z,11.40
2018-05-03T23:21:51.286Z,11.40
2018-05-03T23:24:18.644Z,11.40
2018-05-03T23:26:46.833Z,11.30
2018-05-03T23:29:15.012Z,11.30
2018-05-03T23:31:43.194Z,11.30
2018-05-03T23:34:11.380Z,11.30
2018-05-03T23:36:39.570Z,11.20
2018-05-03T23:39:07.755Z,11.20
2018-05-03T23:41:35.944Z,11.20
2018-05-03T23:44:03.360Z,11.20
2018-05-03T23:46:30.772Z,11.20
2018-05-03T23:48:58.202Z,11.20
2018-05-03T23:51:25.608Z,11.10
2018-05-03T23:53:53.794Z,11.10
2018-05-03T23:56:21.973Z,11.10
2018-05-03T23:58:49.507Z,11.10
